Time;durP1;ratioP1;P1;durP2;ratioP2;P2;SDS_P1;SDS_P2;PMS_P1;PMS_P2;Temp;Humidity;BMP_temperature;BMP_pressure;BME280_temperature;BME280_humidity;BME280_pressure;Samples;Min_cycle;Max_cycle;Signal;HPM_P1;HPM_P2
2021/05/29 00:00:58;;;;;;;5.78;4.70;;;;;;;17.41;100.00;100208.48;1772929;80;21509;-69
2021/05/29 00:03:28;;;;;;;10.95;5.28;;;;;;;17.38;100.00;100210.07;1738318;81;21066;-69
2021/05/29 00:05:54;;;;;;;9.05;5.37;;;;;;;17.36;100.00;100204.38;1736074;81;21182;-69
2021/05/29 00:08:21;;;;;;;9.48;5.55;;;;;;;17.32;100.00;100207.78;1794894;79;21625;-69
2021/05/29 00:10:52;;;;;;;10.08;5.58;;;;;;;17.30;100.00;100201.14;1795113;79;21452;-69
2021/05/29 00:13:19;;;;;;;8.28;5.47;;;;;;;17.26;100.00;100202.34;1778424;79;21090;-70
2021/05/29 00:15:47;;;;;;;7.95;5.33;;;;;;;17.23;100.00;100195.77;1739504;82;21066;-71
2021/05/29 00:18:13;;;;;;;19.85;6.28;;;;;;;17.22;100.00;100193.19;1738948;81;21415;-71
2021/05/29 00:20:42;;;;;;;7.83;4.72;;;;;;;17.17;100.00;100196.21;1738904;82;21029;-70
2021/05/29 00:23:12;;;;;;;8.48;4.87;;;;;;;17.16;100.00;100197.19;1739054;82;21547;-71
2021/05/29 00:25:38;;;;;;;5.47;4.62;;;;;;;17.13;100.00;100194.23;1739036;82;21382;-70
2021/05/29 00:28:05;;;;;;;9.50;5.30;;;;;;;17.10;100.00;100182.74;1737506;81;21444;-70
2021/05/29 00:30:31;;;;;;;8.05;4.87;;;;;;;17.07;100.00;100175.69;1762500;80;21617;-69
2021/05/29 00:32:58;;;;;;;7.78;4.95;;;;;;;17.06;100.00;100183.44;1775230;80;20982;-69
2021/05/29 00:35:25;;;;;;;9.45;4.53;;;;;;;17.03;100.00;100179.60;1776063;79;21081;-69
2021/05/29 00:37:51;;;;;;;9.28;4.90;;;;;;;16.99;100.00;100182.16;1776430;79;21674;-70
2021/05/29 00:40:19;;;;;;;7.15;4.00;;;;;;;16.94;100.00;100189.72;1776335;79;21081;-69
2021/05/29 00:42:46;;;;;;;8.80;4.03;;;;;;;16.90;100.00;100183.13;1786397;78;21707;-70
2021/05/29 00:45:13;;;;;;;7.30;4.45;;;;;;;16.86;100.00;100182.98;1787263;80;21128;-70
2021/05/29 00:47:40;;;;;;;5.58;3.70;;;;;;;16.83;100.00;100180.49;1788054;80;22263;-71
2021/05/29 00:50:11;;;;;;;7.20;4.70;;;;;;;16.80;100.00;100201.02;1797447;78;21098;-71
2021/05/29 00:52:38;;;;;;;8.53;4.37;;;;;;;16.78;100.00;100179.08;1814880;79;21019;-70
2021/05/29 00:55:09;;;;;;;8.93;3.95;;;;;;;16.76;100.00;100192.73;1814635;79;21372;-69
2021/05/29 00:57:41;;;;;;;10.82;4.20;;;;;;;16.74;100.00;100204.16;1814467;78;21099;-70
2021/05/29 01:00:09;;;;;;;6.47;4.17;;;;;;;16.70;100.00;100200.80;1814712;79;21098;-71
2021/05/29 01:02:36;;;;;;;9.50;5.62;;;;;;;16.70;100.00;100204.00;1815170;78;20963;-72
2021/05/29 01:05:05;;;;;;;11.53;7.22;;;;;;;16.67;100.00;100206.89;1801584;78;21070;-71
2021/05/29 01:07:33;;;;;;;11.88;8.43;;;;;;;16.66;100.00;100203.34;1809066;79;21068;-72
2021/05/29 01:10:01;;;;;;;9.20;6.45;;;;;;;16.67;100.00;100196.06;1809030;79;22193;-69
2021/05/29 01:12:27;;;;;;;8.75;5.28;;;;;;;16.66;100.00;100199.75;1803540;79;21041;-71
2021/05/29 01:14:58;;;;;;;12.25;7.00;;;;;;;16.67;100.00;100194.25;1787517;80;21057;-70
2021/05/29 01:17:26;;;;;;;9.43;5.45;;;;;;;16.67;100.00;100191.54;1786984;80;21072;-72
2021/05/29 01:19:52;;;;;;;9.90;4.50;;;;;;;16.69;100.00;100190.06;1789075;80;21083;-71
2021/05/29 01:22:51;;;;;;;8.90;5.00;;;;;;;16.69;100.00;100192.77;1786855;80;21578;-71
2021/05/29 01:25:31;;;;;;;7.22;4.15;;;;;;;16.69;100.00;100192.77;1786116;79;21124;-70
2021/05/29 01:28:11;;;;;;;8.60;4.60;;;;;;;16.69;100.00;100190.94;1785826;80;21505;-69
2021/05/29 01:30:49;;;;;;;10.45;4.78;;;;;;;16.68;100.00;100189.68;1781436;80;21019;-70
2021/05/29 01:33:22;;;;;;;9.13;5.20;;;;;;;16.65;100.00;100193.95;1782440;78;21140;-70
2021/05/29 01:35:48;;;;;;;14.38;5.15;;;;;;;16.65;100.00;100196.66;1794401;79;21131;-71
2021/05/29 01:38:17;;;;;;;9.20;4.62;;;;;;;16.66;100.00;100205.16;1800127;79;21107;-69
2021/05/29 01:40:44;;;;;;;7.62;4.70;;;;;;;16.68;100.00;100208.62;1800252;79;21130;-69
2021/05/29 01:43:11;;;;;;;9.63;4.53;;;;;;;16.69;100.00;100215.77;1800094;79;21373;-68
2021/05/29 01:45:41;;;;;;;11.05;4.65;;;;;;;16.70;100.00;100227.01;1800704;79;20996;-67
2021/05/29 01:48:08;;;;;;;7.10;4.28;;;;;;;16.71;100.00;100227.39;1800518;79;21119;-67
2021/05/29 01:50:46;;;;;;;7.95;4.75;;;;;;;16.70;100.00;100224.30;1800353;79;21585;-67
2021/05/29 01:53:14;;;;;;;6.45;4.65;;;;;;;16.71;100.00;100228.23;1799883;79;21071;-69
2021/05/29 01:55:43;;;;;;;6.72;4.30;;;;;;;16.73;100.00;100228.14;1802025;79;20969;-70
2021/05/29 01:58:11;;;;;;;5.65;4.53;;;;;;;16.71;100.00;100228.74;1800246;79;21659;-67
2021/05/29 02:00:37;;;;;;;7.17;4.08;;;;;;;16.71;100.00;100226.03;1800393;79;21064;-67
2021/05/29 02:03:04;;;;;;;6.12;4.00;;;;;;;16.70;99.95;100228.36;1798368;78;21103;-66
2021/05/29 02:05:32;;;;;;;6.47;4.62;;;;;;;16.67;99.64;100221.31;1785107;79;21140;-67
2021/05/29 02:08:03;;;;;;;7.53;4.37;;;;;;;16.66;99.37;100226.81;1804574;79;20950;-66
2021/05/29 02:10:31;;;;;;;5.97;4.12;;;;;;;16.65;99.34;100231.84;1773795;80;21105;-69
2021/05/29 02:13:00;;;;;;;8.10;4.33;;;;;;;16.66;99.22;100232.23;1773660;80;21139;-67
2021/05/29 02:15:33;;;;;;;7.12;3.67;;;;;;;16.66;99.17;100234.94;1738743;81;21086;-68
2021/05/29 02:18:03;;;;;;;6.40;3.50;;;;;;;16.66;99.15;100237.64;1739365;81;21044;-68
2021/05/29 02:20:47;;;;;;;7.53;3.62;;;;;;;16.65;98.91;100235.91;1738584;81;21784;-67
2021/05/29 02:23:18;;;;;;;4.25;3.35;;;;;;;16.63;98.70;100239.20;1773562;80;21821;-68
2021/05/29 02:25:46;;;;;;;5.15;3.33;;;;;;;16.57;98.62;100231.90;1738748;81;21090;-68
2021/05/29 02:28:12;;;;;;;4.45;3.00;;;;;;;16.55;98.30;100227.55;1738477;82;21124;-68
2021/05/29 02:30:41;;;;;;;8.08;3.25;;;;;;;16.53;98.16;100230.38;1747724;82;20993;-66
2021/05/29 02:33:08;;;;;;;5.67;3.40;;;;;;;16.49;98.08;100223.45;1716730;82;21146;-69
2021/05/29 02:35:35;;;;;;;5.30;3.55;;;;;;;16.47;98.04;100233.52;1737027;82;21090;-67
2021/05/29 02:38:03;;;;;;;7.05;3.50;;;;;;;16.45;98.02;100221.90;1737514;82;21077;-67
2021/05/29 02:40:30;;;;;;;10.72;3.70;;;;;;;16.44;98.38;100214.76;1737292;82;21098;-68
2021/05/29 02:42:56;;;;;;;9.33;3.50;;;;;;;16.42;98.27;100220.77;1734455;82;21074;-68
2021/05/29 02:45:24;;;;;;;8.65;3.60;;;;;;;16.42;98.17;100217.59;1773419;80;21101;-68
2021/05/29 02:47:51;;;;;;;6.25;3.72;;;;;;;16.39;98.17;100228.62;1774022;80;21067;-67
2021/05/29 02:50:17;;;;;;;7.03;4.08;;;;;;;16.38;98.09;100226.01;1773479;80;21133;-68
2021/05/29 02:52:44;;;;;;;8.58;3.60;;;;;;;16.35;98.14;100218.95;1773404;80;21109;-69
2021/05/29 02:55:14;;;;;;;8.78;2.87;;;;;;;16.37;98.16;100214.80;1773576;80;21511;-69
2021/05/29 02:57:42;;;;;;;8.03;3.15;;;;;;;16.35;97.96;100227.07;1773838;80;21061;-66
2021/05/29 03:00:10;;;;;;;8.63;3.00;;;;;;;16.35;97.89;100226.22;1773619;80;21495;-67
2021/05/29 03:02:37;;;;;;;5.35;3.20;;;;;;;16.33;97.97;100221.78;1773757;79;21066;-69
2021/05/29 03:05:06;;;;;;;4.80;3.08;;;;;;;16.33;98.03;100212.31;1766849;80;21074;-68
2021/05/29 03:07:32;;;;;;;6.75;3.37;;;;;;;16.32;98.09;100214.64;1743558;82;21488;-68
2021/05/29 03:10:00;;;;;;;6.33;3.70;;;;;;;16.32;98.32;100218.70;1743222;82;21487;-67
2021/05/29 03:12:27;;;;;;;6.67;3.50;;;;;;;16.33;98.56;100208.26;1736131;82;21872;-68
2021/05/29 03:14:55;;;;;;;6.53;3.80;;;;;;;16.33;98.85;100213.67;1738854;82;21412;-67
2021/05/29 03:17:22;;;;;;;10.63;4.03;;;;;;;16.32;99.57;100213.28;1738581;81;21652;-67
2021/05/29 03:19:49;;;;;;;8.30;3.90;;;;;;;16.32;100.00;100222.75;1739052;81;21102;-67
2021/05/29 03:22:17;;;;;;;7.37;4.22;;;;;;;16.35;100.00;100219.45;1738838;81;21141;-67
2021/05/29 03:24:43;;;;;;;8.55;4.80;;;;;;;16.36;100.00;100215.78;1738859;82;21093;-67
2021/05/29 03:27:16;;;;;;;5.75;3.90;;;;;;;16.37;100.00;100206.69;1738609;82;21417;-67
2021/05/29 03:29:39;;;;;;;8.88;4.42;;;;;;;16.38;100.00;100209.30;1731013;81;21081;-67
2021/05/29 03:32:07;;;;;;;6.95;4.20;;;;;;;16.39;100.00;100214.21;1730418;81;21112;-67
2021/05/29 03:34:33;;;;;;;6.40;3.98;;;;;;;16.37;100.00;100209.39;1772475;79;21120;-68
2021/05/29 03:36:59;;;;;;;9.88;4.40;;;;;;;16.33;100.00;100215.49;1772326;80;21097;-68
2021/05/29 03:39:26;;;;;;;6.50;4.30;;;;;;;16.33;100.00;100225.84;1772113;80;21096;-67
2021/05/29 03:41:53;;;;;;;7.10;4.28;;;;;;;16.33;100.00;100231.25;1756323;80;21137;-68
2021/05/29 03:44:19;;;;;;;8.03;4.22;;;;;;;16.36;100.00;100228.84;1746792;82;21541;-67
2021/05/29 03:46:46;;;;;;;5.97;4.25;;;;;;;16.38;100.00;100235.01;1747013;82;21182;-67
2021/05/29 03:49:13;;;;;;;12.85;4.85;;;;;;;16.37;100.00;100231.92;1746842;80;21094;-67
2021/05/29 03:51:39;;;;;;;8.48;4.35;;;;;;;16.39;100.00;100234.50;1747150;82;21152;-67
2021/05/29 03:54:06;;;;;;;6.83;4.53;;;;;;;16.42;100.00;100239.23;1747034;81;21093;-67
2021/05/29 03:56:33;;;;;;;13.65;4.60;;;;;;;16.45;100.00;100244.90;1746938;82;21412;-67
2021/05/29 03:59:02;;;;;;;6.72;3.98;;;;;;;16.48;100.00;100243.36;1747143;82;21137;-67
2021/05/29 04:01:28;;;;;;;7.60;3.55;;;;;;;16.52;100.00;100232.70;1747343;80;21745;-67
2021/05/29 04:03:55;;;;;;;6.05;3.30;;;;;;;16.56;100.00;100242.81;1747016;80;21077;-67
2021/05/29 04:06:21;;;;;;;5.03;3.35;;;;;;;16.54;100.00;100240.23;1742679;82;21146;-67
2021/05/29 04:08:50;;;;;;;8.55;3.60;;;;;;;16.52;99.92;100248.94;1741138;82;21098;-67
2021/05/29 04:11:17;;;;;;;6.40;3.22;;;;;;;16.51;99.54;100258.03;1698553;82;21084;-67
2021/05/29 04:13:44;;;;;;;5.53;3.22;;;;;;;16.50;99.14;100253.59;1698106;84;21558;-67
2021/05/29 04:16:11;;;;;;;5.33;3.35;;;;;;;16.48;98.83;100262.30;1697864;83;21076;-67
2021/05/29 04:18:38;;;;;;;7.35;3.50;;;;;;;16.45;98.91;100255.72;1697783;84;21085;-66
2021/05/29 04:21:06;;;;;;;5.60;3.45;;;;;;;16.42;98.92;100255.94;1699082;84;21060;-66
2021/05/29 04:23:33;;;;;;;7.22;3.30;;;;;;;16.37;99.05;100256.73;1697746;82;21442;-66
2021/05/29 04:25:59;;;;;;;9.88;4.30;;;;;;;16.33;99.50;100265.06;1730548;82;21073;-66
2021/05/29 04:28:26;;;;;;;6.05;3.95;;;;;;;16.33;99.77;100258.30;1745162;80;21094;-67
2021/05/29 04:30:52;;;;;;;5.15;3.12;;;;;;;16.39;99.90;100261.09;1773399;80;21630;-67
2021/05/29 04:33:19;;;;;;;7.00;3.33;;;;;;;16.44;99.88;100263.45;1808917;78;21094;-67
2021/05/29 04:35:46;;;;;;;4.58;3.20;;;;;;;16.51;99.74;100274.27;1828813;78;21849;-67
2021/05/29 04:38:12;;;;;;;7.55;3.60;;;;;;;16.59;99.42;100269.19;1828928;78;21602;-74
2021/05/29 04:40:40;;;;;;;8.28;3.70;;;;;;;16.66;99.22;100274.17;1828555;78;21058;-76
2021/05/29 04:43:07;;;;;;;6.47;3.70;;;;;;;16.74;98.98;100279.45;1830238;78;20987;-76
2021/05/29 04:45:33;;;;;;;7.45;3.58;;;;;;;16.83;98.75;100277.95;1828593;78;20987;-76
2021/05/29 04:48:00;;;;;;;6.90;3.80;;;;;;;16.93;98.23;100275.47;1828967;78;21500;-76
2021/05/29 04:50:27;;;;;;;7.58;4.22;;;;;;;17.00;97.42;100277.31;1828837;78;21639;-76
2021/05/29 04:52:54;;;;;;;10.25;4.30;;;;;;;17.05;97.27;100279.20;1828938;78;21045;-75
2021/05/29 04:55:21;;;;;;;6.42;4.10;;;;;;;17.08;96.64;100285.75;1828698;78;21113;-76
2021/05/29 04:57:48;;;;;;;6.17;4.28;;;;;;;17.09;96.37;100272.59;1830746;78;20943;-77
2021/05/29 05:00:16;;;;;;;6.17;4.25;;;;;;;17.12;96.15;100285.06;1828679;78;20983;-76
2021/05/29 05:02:43;;;;;;;7.75;3.90;;;;;;;17.14;95.96;100273.63;1829062;78;21811;-75
2021/05/29 05:05:11;;;;;;;8.10;3.70;;;;;;;17.16;95.93;100277.98;1825528;78;21546;-75
2021/05/29 05:07:38;;;;;;;9.28;4.25;;;;;;;17.16;96.19;100279.33;1809451;79;21010;-76
2021/05/29 05:10:06;;;;;;;7.55;3.75;;;;;;;17.18;96.08;100280.09;1813282;78;21134;-75
2021/05/29 05:12:33;;;;;;;7.20;4.10;;;;;;;17.21;96.15;100278.98;1828599;78;21608;-75
2021/05/29 05:15:01;;;;;;;4.47;3.27;;;;;;;17.23;96.01;100279.73;1828754;78;21183;-77
2021/05/29 05:17:27;;;;;;;4.78;3.58;;;;;;;17.28;96.00;100272.65;1828753;78;21075;-77
2021/05/29 05:19:54;;;;;;;8.63;3.30;;;;;;;17.31;96.04;100282.80;1829148;78;21098;-75
2021/05/29 05:22:20;;;;;;;4.30;3.58;;;;;;;17.35;95.67;100281.22;1829015;78;21074;-75
2021/05/29 05:24:47;;;;;;;4.33;3.17;;;;;;;17.37;95.61;100297.75;1828876;78;21967;-76
2021/05/29 05:27:13;;;;;;;6.37;3.72;;;;;;;17.41;95.69;100280.30;1828833;78;22190;-77
2021/05/29 05:29:39;;;;;;;7.10;3.65;;;;;;;17.44;95.56;100282.78;1791898;78;21146;-77
2021/05/29 05:32:08;;;;;;;5.35;3.20;;;;;;;17.49;95.37;100287.00;1799310;78;21066;-74
2021/05/29 05:34:34;;;;;;;10.30;3.62;;;;;;;17.54;95.40;100285.70;1828641;78;21498;-75
2021/05/29 05:37:01;;;;;;;8.38;3.30;;;;;;;17.63;95.38;100286.88;1828999;78;21042;-76
2021/05/29 05:39:27;;;;;;;5.37;3.00;;;;;;;17.71;95.09;100284.47;1828787;78;21071;-76
2021/05/29 05:41:54;;;;;;;5.00;3.05;;;;;;;17.80;94.78;100284.80;1829257;78;21173;-76
2021/05/29 05:44:21;;;;;;;3.37;2.72;;;;;;;17.88;94.48;100289.16;1829043;78;21085;-76
2021/05/29 05:46:47;;;;;;;4.70;2.98;;;;;;;17.98;94.00;100290.20;1829254;78;21122;-76
2021/05/29 05:49:13;;;;;;;7.87;3.42;;;;;;;18.11;93.67;100285.27;1829093;78;21531;-76
2021/05/29 05:51:40;;;;;;;6.47;3.17;;;;;;;18.26;93.38;100299.53;1829134;78;21599;-75
2021/05/29 05:54:06;;;;;;;5.33;3.37;;;;;;;18.41;92.89;100290.25;1829473;78;22212;-75
2021/05/29 05:56:33;;;;;;;6.28;3.12;;;;;;;18.56;92.27;100307.22;1829116;78;21071;-75
2021/05/29 05:59:00;;;;;;;9.78;4.00;;;;;;;18.70;90.99;100299.88;1829046;78;22347;-76
2021/05/29 06:01:27;;;;;;;4.95;3.42;;;;;;;18.83;90.42;100302.00;1819146;78;21553;-75
2021/05/29 06:03:53;;;;;;;4.70;3.60;;;;;;;18.98;89.33;100293.66;1811326;78;21081;-77
2021/05/29 06:06:20;;;;;;;7.58;3.52;;;;;;;19.08;88.32;100304.20;1814913;78;21326;-75
2021/05/29 06:08:47;;;;;;;8.88;3.45;;;;;;;19.14;88.03;100309.66;1809281;79;21061;-76
2021/05/29 06:11:14;;;;;;;9.10;3.65;;;;;;;19.23;87.56;100306.23;1806256;78;21073;-77
2021/05/29 06:21:32;;;;;;;6.72;4.28;;;;;;;19.57;84.18;100318.48;1814531;79;21075;-77
2021/05/29 06:23:56;;;;;;;5.65;3.58;;;;;;;19.49;84.93;100305.13;1813604;79;21285;-76
2021/05/29 06:26:23;;;;;;;6.37;4.00;;;;;;;19.49;85.07;100310.56;1803623;78;21062;-77
2021/05/29 06:28:49;;;;;;;4.40;3.40;;;;;;;19.49;84.71;100314.64;1789183;79;21071;-77
2021/05/29 06:31:16;;;;;;;6.60;4.28;;;;;;;19.44;84.88;100313.16;1794993;79;21157;-78
2021/05/29 06:33:44;;;;;;;6.90;3.80;;;;;;;19.50;85.18;100310.46;1794072;79;21136;-75
2021/05/29 06:36:12;;;;;;;5.95;3.70;;;;;;;19.54;84.74;100316.02;1779555;79;21022;-75
2021/05/29 06:38:39;;;;;;;7.40;4.17;;;;;;;19.64;84.44;100325.66;1779983;78;21064;-75
2021/05/29 06:41:05;;;;;;;6.45;3.50;;;;;;;19.81;84.59;100324.80;1779081;79;21833;-74
2021/05/29 06:43:32;;;;;;;11.12;4.15;;;;;;;19.97;82.27;100325.30;1777907;79;21118;-75
2021/05/29 06:45:59;;;;;;;12.98;8.60;;;;;;;20.11;82.15;100330.11;1775945;79;21103;-75
2021/05/29 06:48:26;;;;;;;11.33;5.58;;;;;;;20.26;80.72;100317.09;1785561;78;21151;-74
2021/05/29 06:50:54;;;;;;;15.25;10.03;;;;;;;20.43;80.56;100327.92;1793418;78;21038;-74
2021/05/29 06:53:44;;;;;;;7.70;4.97;;;;;;;20.56;79.03;100330.00;1785249;79;21082;-74
2021/05/29 06:58:47;;;;;;;11.12;4.37;;;;;;;20.67;77.20;100337.74;1782360;78;26638;-73
2021/05/29 07:01:08;;;;;;;10.20;5.97;;;;;;;20.74;77.04;100334.38;1783142;78;21028;-75
2021/05/29 07:03:35;;;;;;;6.90;5.00;;;;;;;20.79;75.96;100346.77;1776696;78;21152;-72
2021/05/29 07:06:01;;;;;;;7.28;5.97;;;;;;;20.66;73.53;100375.52;1740428;80;21572;-75
2021/05/29 07:08:28;;;;;;;6.65;5.37;;;;;;;20.49;73.75;100349.70;1732295;80;21475;-74
2021/05/29 07:10:56;;;;;;;11.30;6.80;;;;;;;20.36;74.34;100356.66;1747106;80;20888;-73
2021/05/29 07:13:22;;;;;;;17.60;6.90;;;;;;;20.41;74.36;100350.33;1744214;81;21092;-74
2021/05/29 07:15:50;;;;;;;9.58;7.03;;;;;;;20.45;74.04;100346.39;1742074;81;21939;-73
2021/05/29 07:18:21;;;;;;;9.15;7.35;;;;;;;20.39;74.50;100342.80;1739340;81;21771;-74
2021/05/29 07:20:47;;;;;;;10.32;7.35;;;;;;;20.33;75.39;100354.56;1738275;81;21745;-73
2021/05/29 07:23:14;;;;;;;15.35;10.20;;;;;;;20.37;75.43;100350.23;1742365;81;22156;-74
2021/05/29 07:25:41;;;;;;;10.15;7.12;;;;;;;20.35;76.06;100360.38;1737620;81;21109;-73
2021/05/29 07:28:09;;;;;;;12.58;6.90;;;;;;;20.31;75.25;100363.36;1731183;81;21047;-74
2021/05/29 07:30:35;;;;;;;14.55;12.18;;;;;;;20.29;75.03;100359.02;1749523;80;21130;-74
2021/05/29 07:33:04;;;;;;;13.70;8.23;;;;;;;20.30;75.40;100364.35;1765493;80;21052;-73
2021/05/29 07:35:31;;;;;;;11.40;7.95;;;;;;;20.29;74.67;100367.19;1781555;80;21475;-73
2021/05/29 07:37:57;;;;;;;21.42;11.57;;;;;;;20.26;74.40;100356.08;1766944;80;21559;-74
2021/05/29 07:40:24;;;;;;;13.28;10.28;;;;;;;20.31;74.89;100355.19;1773261;80;21403;-72
2021/05/29 07:42:50;;;;;;;19.75;14.00;;;;;;;20.39;74.57;100365.93;1761517;80;21792;-75
2021/05/29 07:45:17;;;;;;;22.27;14.70;;;;;;;20.42;74.28;100362.95;1778714;80;21094;-70
2021/05/29 07:47:44;;;;;;;19.12;10.72;;;;;;;20.33;75.12;100353.20;1748297;81;21041;-69
2021/05/29 07:50:12;;;;;;;15.03;9.35;;;;;;;20.40;75.45;100351.33;1751770;80;21158;-68
2021/05/29 07:52:42;;;;;;;17.32;10.90;;;;;;;20.44;74.86;100359.60;1769583;80;21064;-68
2021/05/29 07:55:12;;;;;;;12.18;10.65;;;;;;;20.40;75.33;100348.61;1756174;80;21104;-67
2021/05/29 07:57:38;;;;;;;17.80;11.30;;;;;;;20.33;75.23;100355.05;1746633;80;21430;-69
2021/05/29 08:00:09;;;;;;;16.30;10.43;;;;;;;20.20;75.95;100338.87;1750761;81;21135;-68
2021/05/29 08:02:37;;;;;;;19.48;13.32;;;;;;;20.08;76.47;100352.98;1743939;81;21124;-69
2021/05/29 08:05:05;;;;;;;19.17;12.23;;;;;;;19.96;75.66;100342.61;1751385;80;21720;-68
2021/05/29 08:07:32;;;;;;;27.25;15.80;;;;;;;19.89;75.00;100349.52;1776360;80;21828;-68
2021/05/29 08:09:58;;;;;;;23.73;13.25;;;;;;;19.89;74.80;100352.23;1770316;79;21074;-68
2021/05/29 08:12:25;;;;;;;23.02;12.20;;;;;;;19.86;74.46;100342.45;1727283;81;21080;-69
2021/05/29 08:14:54;;;;;;;20.37;14.53;;;;;;;19.87;74.14;100343.34;1757648;80;21646;-69
2021/05/29 08:17:20;;;;;;;18.60;14.18;;;;;;;19.91;74.58;100339.41;1748192;80;21021;-69
2021/05/29 08:19:48;;;;;;;15.43;11.68;;;;;;;19.99;74.90;100339.63;1750550;80;21646;-69
2021/05/29 08:22:16;;;;;;;17.95;11.90;;;;;;;20.12;73.71;100364.50;1760442;80;22220;-70
2021/05/29 08:24:43;;;;;;;19.80;12.82;;;;;;;20.24;73.51;100349.90;1749487;80;21628;-69
2021/05/29 08:27:10;;;;;;;19.17;12.82;;;;;;;20.39;73.31;100356.41;1756251;80;21145;-69
2021/05/29 08:29:36;;;;;;;24.45;13.90;;;;;;;20.52;71.85;100366.66;1743490;80;21618;-69
2021/05/29 08:32:04;;;;;;;22.50;14.30;;;;;;;20.54;71.85;100359.22;1746663;80;21096;-69
2021/05/29 08:34:31;;;;;;;25.40;16.12;;;;;;;20.58;71.50;100355.24;1767065;80;21038;-68
2021/05/29 08:36:58;;;;;;;18.90;12.90;;;;;;;20.71;71.55;100341.97;1749596;80;21066;-70
2021/05/29 08:39:25;;;;;;;21.17;15.25;;;;;;;20.85;70.31;100388.50;1750534;81;38077;-68
2021/05/29 08:41:52;;;;;;;17.42;14.98;;;;;;;20.83;70.27;100351.83;1761455;80;21014;-68
2021/05/29 08:44:18;;;;;;;15.78;13.43;;;;;;;20.89;70.00;100343.16;1723756;81;21110;-65
2021/05/29 08:46:48;;;;;;;14.98;11.43;;;;;;;20.99;69.41;100330.10;1729638;81;22029;-65
2021/05/29 08:49:15;;;;;;;14.50;11.73;;;;;;;21.02;68.71;100380.24;1726409;80;21109;-65
2021/05/29 08:51:42;;;;;;;27.93;15.83;;;;;;;21.00;68.64;100353.62;1744157;80;21114;-64
2021/05/29 08:54:08;;;;;;;18.07;12.88;;;;;;;20.99;68.90;100320.56;1725868;82;21062;-69
2021/05/29 08:56:36;;;;;;;17.37;13.25;;;;;;;21.09;68.72;100353.34;1720106;81;21701;-67
2021/05/29 08:59:03;;;;;;;18.45;12.33;;;;;;;21.15;68.73;100333.23;1748303;80;21092;-67
2021/05/29 09:01:29;;;;;;;16.02;10.93;;;;;;;21.24;68.40;100328.85;1750159;80;21579;-69
2021/05/29 09:04:06;;;;;;;17.60;14.30;;;;;;;21.29;67.64;100321.61;1748362;80;21068;-67
2021/05/29 09:06:37;;;;;;;17.12;11.25;;;;;;;21.29;67.87;100333.39;1758691;80;21013;-67
2021/05/29 09:09:13;;;;;;;14.25;11.60;;;;;;;21.33;68.32;100333.97;1739752;81;21168;-67
2021/05/29 09:11:53;;;;;;;16.97;10.98;;;;;;;21.46;67.80;100336.00;1725819;82;21613;-67
2021/05/29 09:14:35;;;;;;;22.55;10.25;;;;;;;21.54;67.62;100337.17;1747834;81;21021;-69
2021/05/29 09:17:21;;;;;;;16.85;11.03;;;;;;;21.62;67.49;100318.29;1738848;81;21022;-67
2021/05/29 09:20:12;;;;;;;22.20;12.03;;;;;;;21.67;66.90;100356.95;1729129;81;21140;-71
2021/05/29 09:23:02;;;;;;;13.93;8.60;;;;;;;21.79;66.19;100340.00;1751957;80;21063;-70
2021/05/29 09:25:28;;;;;;;11.12;7.08;;;;;;;21.81;66.31;100320.77;1742616;81;21472;-71
2021/05/29 09:28:04;;;;;;;10.55;6.53;;;;;;;21.88;65.02;100333.73;1754491;80;20998;-70
2021/05/29 09:30:37;;;;;;;11.22;6.90;;;;;;;21.84;65.45;100332.77;1752577;80;21121;-70
2021/05/29 09:33:28;;;;;;;18.05;9.03;;;;;;;21.79;65.01;100352.79;1744528;82;21120;-69
2021/05/29 09:36:03;;;;;;;15.28;9.58;;;;;;;21.82;65.57;100322.50;1725450;82;21129;-71
2021/05/29 09:38:37;;;;;;;13.83;10.70;;;;;;;22.00;65.88;100325.42;1720854;82;21478;-69
2021/05/29 09:41:07;;;;;;;11.00;9.73;;;;;;;22.20;64.84;100338.61;1721143;83;21111;-69
2021/05/29 09:43:57;;;;;;;11.28;7.65;;;;;;;22.25;64.97;100322.70;1740459;81;21527;-70
2021/05/29 09:46:24;;;;;;;14.65;7.75;;;;;;;22.30;63.63;100344.98;1737553;80;20954;-70
2021/05/29 09:49:01;;;;;;;18.92;9.65;;;;;;;22.30;63.79;100316.31;1745460;81;21162;-70
2021/05/29 09:51:31;;;;;;;15.48;9.03;;;;;;;;;;1747742;81;20943;-70
2021/05/29 09:54:07;;;;;;;10.43;7.95;;;;;;;22.42;63.80;100318.90;1749059;81;20966;-70
2021/05/29 09:56:43;;;;;;;11.85;8.45;;;;;;;22.40;63.52;100320.91;1757740;80;21101;-70
2021/05/29 09:59:19;;;;;;;14.78;8.10;;;;;;;22.35;63.75;100313.66;1737777;81;21062;-69
2021/05/29 10:01:53;;;;;;;10.15;7.33;;;;;;;22.39;63.77;100316.45;1723093;83;21093;-69
2021/05/29 10:04:39;;;;;;;13.58;7.45;;;;;;;22.41;63.03;100304.39;1718988;82;21086;-71
2021/05/29 10:07:12;;;;;;;13.50;8.13;;;;;;;22.48;63.42;100303.85;1695142;84;21006;-69
2021/05/29 10:09:42;;;;;;;9.95;7.60;;;;;;;22.63;63.21;100315.21;1694266;84;21140;-69
2021/05/29 10:12:10;;;;;;;15.15;8.20;;;;;;;22.76;62.16;100298.05;1759141;80;21044;-70
2021/05/29 10:14:39;;;;;;;17.92;8.08;;;;;;;22.78;61.62;100301.48;1778347;80;21345;-69
2021/05/29 10:17:08;;;;;;;11.38;8.43;;;;;;;22.80;61.11;100317.23;1766339;80;21070;-68
2021/05/29 10:19:39;;;;;;;7.20;6.37;;;;;;;22.77;61.12;100299.77;1748971;80;21669;-69
2021/05/29 10:22:11;;;;;;;10.18;6.42;;;;;;;22.70;60.53;100339.09;1759759;80;21010;-69
2021/05/29 10:24:38;;;;;;;14.53;8.65;;;;;;;22.60;60.90;100319.95;1772930;80;21149;-69
2021/05/29 10:27:08;;;;;;;13.53;8.78;;;;;;;22.58;61.75;100327.44;1745135;81;21133;-71
2021/05/29 10:29:36;;;;;;;9.20;7.25;;;;;;;22.65;61.67;100295.44;1756949;80;21062;-69
2021/05/29 10:32:18;;;;;;;11.15;8.03;;;;;;;22.68;61.55;100296.03;1763809;80;21141;-69
2021/05/29 10:35:09;;;;;;;12.43;8.43;;;;;;;22.71;61.24;100316.74;1735101;81;20940;-70
2021/05/29 10:37:50;;;;;;;14.38;10.38;;;;;;;22.70;61.03;100306.83;1742223;81;21596;-68
2021/05/29 10:40:30;;;;;;;11.97;10.75;;;;;;;22.70;61.65;100305.45;1778888;79;21030;-70
2021/05/29 10:43:13;;;;;;;11.97;9.93;;;;;;;22.72;61.66;100313.84;1785244;79;21447;-71
2021/05/29 10:45:56;;;;;;;15.18;9.43;;;;;;;22.80;61.06;100292.64;1789935;78;21025;-70
2021/05/29 10:48:25;;;;;;;18.75;9.10;;;;;;;22.91;61.01;100285.31;1782856;79;21101;-71
2021/05/29 10:51:00;;;;;;;12.18;8.78;;;;;;;22.96;60.96;100290.67;1792564;79;21161;-70
2021/05/29 10:53:37;;;;;;;18.70;11.83;;;;;;;23.03;60.43;100303.26;1781940;79;21184;-70
2021/05/29 10:56:23;;;;;;;19.35;11.08;;;;;;;23.06;59.69;100292.03;1783962;79;21070;-68
2021/05/29 10:59:13;;;;;;;21.17;10.88;;;;;;;23.09;59.36;100282.69;1742699;81;21630;-70
2021/05/29 11:01:45;;;;;;;16.65;10.78;;;;;;;23.20;59.02;100281.13;1783047;79;21642;-69
2021/05/29 11:04:22;;;;;;;13.53;8.10;;;;;;;23.34;58.65;100282.59;1789763;79;22103;-69
2021/05/29 11:07:03;;;;;;;10.20;6.75;;;;;;;23.49;57.66;100280.72;1790288;79;21848;-69
2021/05/29 11:09:35;;;;;;;12.98;7.78;;;;;;;23.54;56.98;100285.23;1789103;79;21109;-68
2021/05/29 11:12:03;;;;;;;16.97;7.85;;;;;;;23.56;57.43;100278.61;1748020;80;21130;-68
2021/05/29 11:14:48;;;;;;;12.40;8.00;;;;;;;23.72;57.85;100277.95;1762408;80;21141;-68
2021/05/29 11:17:17;;;;;;;8.53;7.10;;;;;;;23.92;57.24;100277.86;1722146;82;21539;-70
2021/05/29 11:20:20;;;;;;;15.45;8.60;;;;;;;24.17;56.43;100285.02;1741138;81;21733;-68
2021/05/29 11:22:50;;;;;;;14.23;8.58;;;;;;;24.31;56.46;100281.75;1740000;81;21551;-70
2021/05/29 11:25:21;;;;;;;9.80;6.67;;;;;;;24.39;56.37;100286.46;1732620;82;21083;-68
2021/05/29 11:27:49;;;;;;;11.60;6.80;;;;;;;24.29;57.33;100270.09;1738907;82;21082;-70
2021/05/29 11:30:41;;;;;;;12.65;7.15;;;;;;;24.27;57.81;100272.13;1723930;82;21635;-69
2021/05/29 11:35:38;;;;;;;12.80;7.53;;;;;;;24.21;57.60;100272.77;1750523;81;21109;-69
2021/05/29 11:38:25;;;;;;;11.40;5.97;;;;;;;24.07;58.16;100278.75;1734897;81;21117;-69
2021/05/29 11:41:13;;;;;;;8.03;5.95;;;;;;;24.05;59.06;100261.63;1726115;81;21512;-67
2021/05/29 11:43:51;;;;;;;9.73;6.15;;;;;;;23.97;59.37;100268.67;1720722;83;21126;-67